sensor_id;sensor_type;location;lat;lon;timestamp;P1;durP1;ratioP1;P2;durP2;ratioP2
48853;SDS011;34673;52.808;17.856;2023-02-01T00:00:58;18.25;;;2.92;;
48853;SDS011;34673;52.808;17.856;2023-02-01T00:03:25;11.90;;;3.05;;
48853;SDS011;34673;52.808;17.856;2023-02-01T00:05:56;10.15;;;1.52;;
48853;SDS011;34673;52.808;17.856;2023-02-01T00:08:24;13.80;;;2.55;;
48853;SDS011;34673;52.808;17.856;2023-02-01T00:11:01;14.55;;;2.33;;
48853;SDS011;34673;52.808;17.856;2023-02-01T00:13:30;13.65;;;2.35;;
48853;SDS011;34673;52.808;17.856;2023-02-01T00:16:03;13.23;;;2.30;;
48853;SDS011;34673;52.808;17.856;2023-02-01T00:18:38;13.27;;;2.15;;
48853;SDS011;34673;52.808;17.856;2023-02-01T00:21:06;14.85;;;2.13;;
48853;SDS011;34673;52.808;17.856;2023-02-01T00:23:33;12.20;;;1.90;;
48853;SDS011;34673;52.808;17.856;2023-02-01T00:26:02;17.92;;;2.47;;
48853;SDS011;34673;52.808;17.856;2023-02-01T00:28:31;15.35;;;2.33;;
48853;SDS011;34673;52.808;17.856;2023-02-01T00:30:59;17.55;;;2.20;;
48853;SDS011;34673;52.808;17.856;2023-02-01T00:33:28;12.52;;;1.90;;
48853;SDS011;34673;52.808;17.856;2023-02-01T00:35:59;12.82;;;1.95;;
48853;SDS011;34673;52.808;17.856;2023-02-01T00:38:31;12.13;;;2.25;;
48853;SDS011;34673;52.808;17.856;2023-02-01T00:41:11;18.27;;;2.55;;
48853;SDS011;34673;52.808;17.856;2023-02-01T00:43:39;11.65;;;1.98;;
48853;SDS011;34673;52.808;17.856;2023-02-01T00:46:07;13.73;;;2.10;;
48853;SDS011;34673;52.808;17.856;2023-02-01T00:48:35;15.60;;;2.80;;
48853;SDS011;34673;52.808;17.856;2023-02-01T00:51:12;13.70;;;2.00;;
48853;SDS011;34673;52.808;17.856;2023-02-01T00:53:41;13.95;;;2.20;;
48853;SDS011;34673;52.808;17.856;2023-02-01T00:56:09;10.13;;;2.20;;
48853;SDS011;34673;52.808;17.856;2023-02-01T00:58:37;15.00;;;2.80;;
48853;SDS011;34673;52.808;17.856;2023-02-01T01:01:10;16.27;;;2.50;;
48853;SDS011;34673;52.808;17.856;2023-02-01T01:03:39;12.38;;;2.00;;
48853;SDS011;34673;52.808;17.856;2023-02-01T01:06:09;11.13;;;1.90;;
48853;SDS011;34673;52.808;17.856;2023-02-01T01:11:07;12.02;;;1.98;;
48853;SDS011;34673;52.808;17.856;2023-02-01T01:13:36;9.38;;;1.77;;
48853;SDS011;34673;52.808;17.856;2023-02-01T01:16:05;16.90;;;2.33;;
48853;SDS011;34673;52.808;17.856;2023-02-01T01:18:33;13.15;;;2.03;;
48853;SDS011;34673;52.808;17.856;2023-02-01T01:21:01;12.68;;;2.25;;
48853;SDS011;34673;52.808;17.856;2023-02-01T01:23:31;15.02;;;2.03;;
48853;SDS011;34673;52.808;17.856;2023-02-01T01:25:58;12.63;;;1.98;;
48853;SDS011;34673;52.808;17.856;2023-02-01T01:28:25;9.48;;;1.65;;
48853;SDS011;34673;52.808;17.856;2023-02-01T01:30:52;16.77;;;2.05;;
48853;SDS011;34673;52.808;17.856;2023-02-01T01:33:19;17.60;;;2.40;;
48853;SDS011;34673;52.808;17.856;2023-02-01T01:35:47;12.38;;;2.35;;
48853;SDS011;34673;52.808;17.856;2023-02-01T01:38:14;20.20;;;2.40;;
48853;SDS011;34673;52.808;17.856;2023-02-01T01:40:44;14.13;;;2.33;;
48853;SDS011;34673;52.808;17.856;2023-02-01T01:43:13;9.35;;;1.50;;
48853;SDS011;34673;52.808;17.856;2023-02-01T01:45:42;10.55;;;1.85;;
48853;SDS011;34673;52.808;17.856;2023-02-01T01:50:51;12.95;;;1.70;;
48853;SDS011;34673;52.808;17.856;2023-02-01T01:53:28;15.15;;;2.00;;
48853;SDS011;34673;52.808;17.856;2023-02-01T01:56:00;16.40;;;2.38;;
48853;SDS011;34673;52.808;17.856;2023-02-01T01:58:28;16.63;;;3.10;;
48853;SDS011;34673;52.808;17.856;2023-02-01T02:00:59;16.65;;;2.90;;
48853;SDS011;34673;52.808;17.856;2023-02-01T02:03:27;12.60;;;2.33;;
48853;SDS011;34673;52.808;17.856;2023-02-01T02:06:01;14.23;;;2.00;;
48853;SDS011;34673;52.808;17.856;2023-02-01T02:08:30;12.43;;;2.20;;
48853;SDS011;34673;52.808;17.856;2023-02-01T02:10:57;15.45;;;2.58;;
48853;SDS011;34673;52.808;17.856;2023-02-01T02:13:35;16.50;;;3.72;;
48853;SDS011;34673;52.808;17.856;2023-02-01T02:16:13;15.15;;;3.05;;
48853;SDS011;34673;52.808;17.856;2023-02-01T02:24:36;14.60;;;2.60;;
48853;SDS011;34673;52.808;17.856;2023-02-01T02:35:45;16.30;;;2.55;;
48853;SDS011;34673;52.808;17.856;2023-02-01T02:43:48;14.13;;;2.20;;
48853;SDS011;34673;52.808;17.856;2023-02-01T02:46:45;12.63;;;2.67;;
48853;SDS011;34673;52.808;17.856;2023-02-01T02:52:57;15.25;;;2.58;;
48853;SDS011;34673;52.808;17.856;2023-02-01T02:55:49;13.27;;;2.28;;
48853;SDS011;34673;52.808;17.856;2023-02-01T02:58:18;14.45;;;2.45;;
48853;SDS011;34673;52.808;17.856;2023-02-01T03:01:06;13.38;;;2.65;;
48853;SDS011;34673;52.808;17.856;2023-02-01T03:03:52;15.07;;;2.60;;
48853;SDS011;34673;52.808;17.856;2023-02-01T03:06:38;14.40;;;2.38;;
48853;SDS011;34673;52.808;17.856;2023-02-01T03:09:07;22.45;;;2.47;;
48853;SDS011;34673;52.808;17.856;2023-02-01T03:11:40;14.90;;;2.33;;
48853;SDS011;34673;52.808;17.856;2023-02-01T03:14:30;18.15;;;3.00;;
48853;SDS011;34673;52.808;17.856;2023-02-01T03:17:07;13.82;;;1.90;;
48853;SDS011;34673;52.808;17.856;2023-02-01T03:19:49;17.40;;;2.58;;
48853;SDS011;34673;52.808;17.856;2023-02-01T03:22:22;18.73;;;2.65;;
48853;SDS011;34673;52.808;17.856;2023-02-01T03:24:54;16.33;;;2.13;;
48853;SDS011;34673;52.808;17.856;2023-02-01T03:27:35;18.77;;;2.85;;
48853;SDS011;34673;52.808;17.856;2023-02-01T03:30:37;15.07;;;3.03;;
48853;SDS011;34673;52.808;17.856;2023-02-01T03:33:17;19.05;;;2.10;;
48853;SDS011;34673;52.808;17.856;2023-02-01T03:38:22;17.52;;;2.65;;
48853;SDS011;34673;52.808;17.856;2023-02-01T03:43:24;20.63;;;2.75;;
48853;SDS011;34673;52.808;17.856;2023-02-01T03:45:58;19.42;;;2.20;;
48853;SDS011;34673;52.808;17.856;2023-02-01T03:48:31;10.68;;;2.30;;
48853;SDS011;34673;52.808;17.856;2023-02-01T03:51:00;13.25;;;2.83;;
48853;SDS011;34673;52.808;17.856;2023-02-01T03:53:31;15.15;;;2.25;;
48853;SDS011;34673;52.808;17.856;2023-02-01T03:56:05;11.10;;;2.40;;
48853;SDS011;34673;52.808;17.856;2023-02-01T03:58:33;14.35;;;2.35;;
48853;SDS011;34673;52.808;17.856;2023-02-01T04:01:00;14.13;;;2.20;;
48853;SDS011;34673;52.808;17.856;2023-02-01T04:03:30;17.05;;;2.47;;
48853;SDS011;34673;52.808;17.856;2023-02-01T04:05:58;15.88;;;2.75;;
48853;SDS011;34673;52.808;17.856;2023-02-01T04:08:27;19.85;;;2.60;;
48853;SDS011;34673;52.808;17.856;2023-02-01T04:10:54;14.38;;;2.03;;
48853;SDS011;34673;52.808;17.856;2023-02-01T04:13:21;12.18;;;2.00;;
48853;SDS011;34673;52.808;17.856;2023-02-01T04:15:48;14.90;;;2.80;;
48853;SDS011;34673;52.808;17.856;2023-02-01T04:18:18;21.80;;;3.83;;
48853;SDS011;34673;52.808;17.856;2023-02-01T04:20:45;13.13;;;2.22;;
48853;SDS011;34673;52.808;17.856;2023-02-01T04:23:12;19.23;;;2.92;;
48853;SDS011;34673;52.808;17.856;2023-02-01T04:25:42;20.83;;;3.33;;
48853;SDS011;34673;52.808;17.856;2023-02-01T04:28:09;18.10;;;2.47;;
48853;SDS011;34673;52.808;17.856;2023-02-01T04:30:36;15.98;;;2.58;;
48853;SDS011;34673;52.808;17.856;2023-02-01T04:33:03;19.70;;;2.20;;
48853;SDS011;34673;52.808;17.856;2023-02-01T04:35:34;16.30;;;2.58;;
48853;SDS011;34673;52.808;17.856;2023-02-01T04:38:01;15.38;;;2.65;;
48853;SDS011;34673;52.808;17.856;2023-02-01T04:40:28;15.52;;;2.97;;
48853;SDS011;34673;52.808;17.856;2023-02-01T04:42:55;15.18;;;2.70;;
48853;SDS011;34673;52.808;17.856;2023-02-01T04:45:22;19.13;;;2.67;;
48853;SDS011;34673;52.808;17.856;2023-02-01T04:47:49;15.20;;;2.13;;
48853;SDS011;34673;52.808;17.856;2023-02-01T04:50:16;13.65;;;2.03;;
48853;SDS011;34673;52.808;17.856;2023-02-01T04:52:43;15.38;;;2.83;;
48853;SDS011;34673;52.808;17.856;2023-02-01T04:55:12;15.88;;;2.90;;
48853;SDS011;34673;52.808;17.856;2023-02-01T04:57:42;14.70;;;2.40;;
48853;SDS011;34673;52.808;17.856;2023-02-01T05:00:09;18.00;;;2.20;;
48853;SDS011;34673;52.808;17.856;2023-02-01T05:02:37;14.75;;;2.53;;
48853;SDS011;34673;52.808;17.856;2023-02-01T05:05:04;18.95;;;2.45;;
48853;SDS011;34673;52.808;17.856;2023-02-01T05:07:32;15.57;;;2.25;;
48853;SDS011;34673;52.808;17.856;2023-02-01T05:09:59;14.05;;;2.75;;
48853;SDS011;34673;52.808;17.856;2023-02-01T05:12:26;16.60;;;2.17;;
48853;SDS011;34673;52.808;17.856;2023-02-01T05:15:12;15.05;;;2.80;;
48853;SDS011;34673;52.808;17.856;2023-02-01T05:17:39;17.98;;;2.78;;
48853;SDS011;34673;52.808;17.856;2023-02-01T05:20:07;15.90;;;2.70;;
48853;SDS011;34673;52.808;17.856;2023-02-01T05:22:35;15.98;;;2.50;;
48853;SDS011;34673;52.808;17.856;2023-02-01T05:25:02;16.08;;;2.90;;
48853;SDS011;34673;52.808;17.856;2023-02-01T05:27:30;20.15;;;3.75;;
48853;SDS011;34673;52.808;17.856;2023-02-01T05:29:57;18.08;;;3.25;;
48853;SDS011;34673;52.808;17.856;2023-02-01T05:32:24;18.27;;;2.58;;
48853;SDS011;34673;52.808;17.856;2023-02-01T05:34:51;14.32;;;2.60;;
48853;SDS011;34673;52.808;17.856;2023-02-01T05:37:18;15.93;;;3.10;;
48853;SDS011;34673;52.808;17.856;2023-02-01T05:39:45;15.52;;;2.30;;
48853;SDS011;34673;52.808;17.856;2023-02-01T05:42:12;19.52;;;3.60;;
48853;SDS011;34673;52.808;17.856;2023-02-01T05:44:39;20.80;;;3.28;;
48853;SDS011;34673;52.808;17.856;2023-02-01T05:47:07;14.50;;;2.42;;
48853;SDS011;34673;52.808;17.856;2023-02-01T05:49:34;13.40;;;2.38;;
48853;SDS011;34673;52.808;17.856;2023-02-01T05:52:01;13.95;;;2.15;;
48853;SDS011;34673;52.808;17.856;2023-02-01T05:54:28;12.88;;;2.22;;
48853;SDS011;34673;52.808;17.856;2023-02-01T05:56:55;11.23;;;2.33;;
48853;SDS011;34673;52.808;17.856;2023-02-01T05:59:23;19.05;;;2.40;;
48853;SDS011;34673;52.808;17.856;2023-02-01T06:01:50;16.35;;;2.20;;
48853;SDS011;34673;52.808;17.856;2023-02-01T06:04:17;14.30;;;2.38;;
48853;SDS011;34673;52.808;17.856;2023-02-01T06:06:44;10.35;;;2.40;;
48853;SDS011;34673;52.808;17.856;2023-02-01T06:09:11;15.77;;;2.50;;
48853;SDS011;34673;52.808;17.856;2023-02-01T06:11:39;14.88;;;2.58;;
48853;SDS011;34673;52.808;17.856;2023-02-01T06:14:07;16.48;;;3.40;;
48853;SDS011;34673;52.808;17.856;2023-02-01T06:16:34;14.13;;;2.40;;
48853;SDS011;34673;52.808;17.856;2023-02-01T06:19:01;14.70;;;2.15;;
48853;SDS011;34673;52.808;17.856;2023-02-01T06:21:28;18.60;;;2.38;;
48853;SDS011;34673;52.808;17.856;2023-02-01T06:23:55;12.57;;;2.03;;
48853;SDS011;34673;52.808;17.856;2023-02-01T06:26:24;12.32;;;2.00;;
48853;SDS011;34673;52.808;17.856;2023-02-01T06:28:51;12.40;;;2.13;;
48853;SDS011;34673;52.808;17.856;2023-02-01T06:31:19;13.85;;;2.53;;
48853;SDS011;34673;52.808;17.856;2023-02-01T06:33:46;13.48;;;2.40;;
48853;SDS011;34673;52.808;17.856;2023-02-01T06:36:14;13.07;;;2.25;;
48853;SDS011;34673;52.808;17.856;2023-02-01T06:38:42;12.48;;;2.20;;
48853;SDS011;34673;52.808;17.856;2023-02-01T06:41:09;15.07;;;2.72;;
48853;SDS011;34673;52.808;17.856;2023-02-01T06:43:37;16.85;;;2.67;;
48853;SDS011;34673;52.808;17.856;2023-02-01T06:46:06;15.45;;;2.55;;
48853;SDS011;34673;52.808;17.856;2023-02-01T06:48:35;9.80;;;1.83;;
48853;SDS011;34673;52.808;17.856;2023-02-01T06:51:02;16.70;;;2.58;;
48853;SDS011;34673;52.808;17.856;2023-02-01T06:53:29;15.80;;;2.92;;
48853;SDS011;34673;52.808;17.856;2023-02-01T06:56:00;8.70;;;2.13;;
48853;SDS011;34673;52.808;17.856;2023-02-01T06:58:30;13.40;;;2.97;;
48853;SDS011;34673;52.808;17.856;2023-02-01T07:01:03;22.50;;;4.07;;
48853;SDS011;34673;52.808;17.856;2023-02-01T07:03:35;17.25;;;2.75;;
48853;SDS011;34673;52.808;17.856;2023-02-01T07:06:02;13.68;;;2.65;;
48853;SDS011;34673;52.808;17.856;2023-02-01T07:08:32;12.77;;;2.75;;
48853;SDS011;34673;52.808;17.856;2023-02-01T07:11:01;13.38;;;1.92;;
48853;SDS011;34673;52.808;17.856;2023-02-01T07:13:33;15.15;;;2.40;;
48853;SDS011;34673;52.808;17.856;2023-02-01T07:16:01;12.98;;;2.42;;
48853;SDS011;34673;52.808;17.856;2023-02-01T07:18:29;11.50;;;2.45;;
48853;SDS011;34673;52.808;17.856;2023-02-01T07:20:58;15.10;;;2.38;;
48853;SDS011;34673;52.808;17.856;2023-02-01T07:23:26;15.02;;;3.03;;
48853;SDS011;34673;52.808;17.856;2023-02-01T07:26:03;14.15;;;2.60;;
48853;SDS011;34673;52.808;17.856;2023-02-01T07:28:34;15.43;;;2.70;;
48853;SDS011;34673;52.808;17.856;2023-02-01T07:31:10;15.45;;;2.28;;
48853;SDS011;34673;52.808;17.856;2023-02-01T07:33:41;12.20;;;2.88;;
48853;SDS011;34673;52.808;17.856;2023-02-01T07:36:13;14.57;;;2.70;;
48853;SDS011;34673;52.808;17.856;2023-02-01T07:38:43;18.70;;;2.97;;
48853;SDS011;34673;52.808;17.856;2023-02-01T07:41:11;17.02;;;2.65;;
48853;SDS011;34673;52.808;17.856;2023-02-01T07:43:38;13.70;;;2.38;;
48853;SDS011;34673;52.808;17.856;2023-02-01T07:46:05;13.15;;;2.38;;
48853;SDS011;34673;52.808;17.856;2023-02-01T07:48:33;12.02;;;2.17;;
48853;SDS011;34673;52.808;17.856;2023-02-01T07:51:01;14.13;;;2.58;;
48853;SDS011;34673;52.808;17.856;2023-02-01T07:53:31;13.48;;;2.42;;
48853;SDS011;34673;52.808;17.856;2023-02-01T07:55:59;12.93;;;2.50;;
48853;SDS011;34673;52.808;17.856;2023-02-01T07:58:27;13.68;;;2.40;;
48853;SDS011;34673;52.808;17.856;2023-02-01T08:00:55;12.68;;;2.42;;
48853;SDS011;34673;52.808;17.856;2023-02-01T08:03:56;15.65;;;2.60;;
48853;SDS011;34673;52.808;17.856;2023-02-01T08:06:29;13.40;;;2.88;;
48853;SDS011;34673;52.808;17.856;2023-02-01T08:11:25;12.70;;;2.65;;
48853;SDS011;34673;52.808;17.856;2023-02-01T08:13:53;12.77;;;2.58;;
48853;SDS011;34673;52.808;17.856;2023-02-01T08:16:20;18.42;;;4.05;;
48853;SDS011;34673;52.808;17.856;2023-02-01T08:18:48;16.80;;;2.67;;
48853;SDS011;34673;52.808;17.856;2023-02-01T08:21:18;14.40;;;2.58;;
48853;SDS011;34673;52.808;17.856;2023-02-01T08:23:48;17.77;;;2.63;;
48853;SDS011;34673;52.808;17.856;2023-02-01T08:26:20;19.38;;;3.10;;
48853;SDS011;34673;52.808;17.856;2023-02-01T08:28:51;17.25;;;2.63;;
48853;SDS011;34673;52.808;17.856;2023-02-01T08:31:21;23.05;;;3.50;;
48853;SDS011;34673;52.808;17.856;2023-02-01T08:33:50;16.63;;;3.00;;
48853;SDS011;34673;52.808;17.856;2023-02-01T08:36:20;21.33;;;3.70;;
48853;SDS011;34673;52.808;17.856;2023-02-01T08:38:48;14.38;;;3.35;;
48853;SDS011;34673;52.808;17.856;2023-02-01T08:41:17;13.93;;;2.63;;
48853;SDS011;34673;52.808;17.856;2023-02-01T08:43:46;20.90;;;4.00;;
48853;SDS011;34673;52.808;17.856;2023-02-01T08:46:14;22.35;;;3.33;;
48853;SDS011;34673;52.808;17.856;2023-02-01T08:48:42;14.60;;;2.65;;
48853;SDS011;34673;52.808;17.856;2023-02-01T08:51:11;15.18;;;2.70;;
48853;SDS011;34673;52.808;17.856;2023-02-01T08:53:39;15.95;;;2.90;;
48853;SDS011;34673;52.808;17.856;2023-02-01T08:56:08;19.35;;;3.83;;
48853;SDS011;34673;52.808;17.856;2023-02-01T08:58:36;16.63;;;2.70;;
48853;SDS011;34673;52.808;17.856;2023-02-01T09:01:05;18.35;;;3.50;;
48853;SDS011;34673;52.808;17.856;2023-02-01T09:03:36;22.17;;;3.45;;
48853;SDS011;34673;52.808;17.856;2023-02-01T09:06:04;14.38;;;3.17;;
48853;SDS011;34673;52.808;17.856;2023-02-01T09:08:36;25.83;;;3.85;;
48853;SDS011;34673;52.808;17.856;2023-02-01T09:11:05;21.52;;;3.92;;
48853;SDS011;34673;52.808;17.856;2023-02-01T09:13:34;20.58;;;3.22;;
48853;SDS011;34673;52.808;17.856;2023-02-01T09:16:02;28.75;;;4.22;;
48853;SDS011;34673;52.808;17.856;2023-02-01T09:18:30;21.42;;;4.22;;
48853;SDS011;34673;52.808;17.856;2023-02-01T09:20:58;23.85;;;3.80;;
48853;SDS011;34673;52.808;17.856;2023-02-01T09:23:25;22.00;;;4.22;;
48853;SDS011;34673;52.808;17.856;2023-02-01T09:25:52;27.58;;;3.72;;
48853;SDS011;34673;52.808;17.856;2023-02-01T09:28:19;18.88;;;3.67;;
48853;SDS011;34673;52.808;17.856;2023-02-01T09:30:46;19.15;;;4.70;;
48853;SDS011;34673;52.808;17.856;2023-02-01T09:33:14;23.67;;;3.58;;
48853;SDS011;34673;52.808;17.856;2023-02-01T09:35:41;20.52;;;3.88;;
48853;SDS011;34673;52.808;17.856;2023-02-01T09:38:08;21.42;;;4.80;;
48853;SDS011;34673;52.808;17.856;2023-02-01T09:40:35;22.38;;;4.05;;
48853;SDS011;34673;52.808;17.856;2023-02-01T09:45:59;19.38;;;3.33;;
48853;SDS011;34673;52.808;17.856;2023-02-01T09:48:48;17.08;;;3.00;;
48853;SDS011;34673;52.808;17.856;2023-02-01T09:51:21;12.98;;;2.47;;
48853;SDS011;34673;52.808;17.856;2023-02-01T09:53:58;11.60;;;2.50;;
48853;SDS011;34673;52.808;17.856;2023-02-01T09:56:44;10.23;;;1.90;;
48853;SDS011;34673;52.808;17.856;2023-02-01T10:02:18;11.02;;;1.77;;
48853;SDS011;34673;52.808;17.856;2023-02-01T10:04:48;11.95;;;1.83;;
48853;SDS011;34673;52.808;17.856;2023-02-01T10:10:00;7.72;;;1.55;;
48853;SDS011;34673;52.808;17.856;2023-02-01T10:26:17;17.10;;;4.10;;
48853;SDS011;34673;52.808;17.856;2023-02-01T10:28:51;19.25;;;3.85;;
48853;SDS011;34673;52.808;17.856;2023-02-01T10:31:21;17.35;;;4.13;;
48853;SDS011;34673;52.808;17.856;2023-02-01T10:34:01;21.65;;;6.10;;
48853;SDS011;34673;52.808;17.856;2023-02-01T10:36:40;17.48;;;3.85;;
48853;SDS011;34673;52.808;17.856;2023-02-01T10:39:12;22.52;;;3.67;;
48853;SDS011;34673;52.808;17.856;2023-02-01T10:41:41;22.90;;;3.90;;
48853;SDS011;34673;52.808;17.856;2023-02-01T10:44:16;27.00;;;4.38;;
48853;SDS011;34673;52.808;17.856;2023-02-01T10:46:46;18.35;;;4.18;;
48853;SDS011;34673;52.808;17.856;2023-02-01T10:49:16;26.02;;;3.97;;
48853;SDS011;34673;52.808;17.856;2023-02-01T10:51:50;17.30;;;4.00;;
48853;SDS011;34673;52.808;17.856;2023-02-01T10:54:22;21.65;;;4.25;;
48853;SDS011;34673;52.808;17.856;2023-02-01T10:56:58;20.92;;;4.20;;
48853;SDS011;34673;52.808;17.856;2023-02-01T10:59:27;18.52;;;3.65;;
48853;SDS011;34673;52.808;17.856;2023-02-01T11:02:00;21.33;;;4.70;;
48853;SDS011;34673;52.808;17.856;2023-02-01T11:04:33;15.30;;;2.88;;
48853;SDS011;34673;52.808;17.856;2023-02-01T11:12:10;15.25;;;3.38;;
48853;SDS011;34673;52.808;17.856;2023-02-01T11:15:14;18.65;;;3.67;;
48853;SDS011;34673;52.808;17.856;2023-02-01T11:17:47;14.48;;;3.22;;
48853;SDS011;34673;52.808;17.856;2023-02-01T11:20:19;12.88;;;3.00;;
48853;SDS011;34673;52.808;17.856;2023-02-01T11:22:58;15.05;;;2.72;;
48853;SDS011;34673;52.808;17.856;2023-02-01T11:25:26;13.68;;;2.63;;
48853;SDS011;34673;52.808;17.856;2023-02-01T11:27:54;12.27;;;3.13;;
48853;SDS011;34673;52.808;17.856;2023-02-01T11:33:05;10.77;;;2.20;;
48853;SDS011;34673;52.808;17.856;2023-02-01T11:35:34;10.95;;;2.80;;
48853;SDS011;34673;52.808;17.856;2023-02-01T11:38:16;10.77;;;2.53;;
48853;SDS011;34673;52.808;17.856;2023-02-01T11:40:48;9.43;;;2.08;;
48853;SDS011;34673;52.808;17.856;2023-02-01T11:43:26;9.07;;;1.80;;
48853;SDS011;34673;52.808;17.856;2023-02-01T11:46:01;8.13;;;1.88;;
48853;SDS011;34673;52.808;17.856;2023-02-01T11:48:31;8.65;;;1.90;;
48853;SDS011;34673;52.808;17.856;2023-02-01T11:51:24;7.05;;;1.63;;
48853;SDS011;34673;52.808;17.856;2023-02-01T12:11:23;6.40;;;1.88;;
48853;SDS011;34673;52.808;17.856;2023-02-01T12:22:18;7.20;;;2.47;;
48853;SDS011;34673;52.808;17.856;2023-02-01T12:25:18;6.95;;;2.20;;
48853;SDS011;34673;52.808;17.856;2023-02-01T12:30:40;5.47;;;1.80;;
48853;SDS011;34673;52.808;17.856;2023-02-01T12:41:49;6.57;;;1.70;;
48853;SDS011;34673;52.808;17.856;2023-02-01T12:44:20;5.22;;;1.77;;
48853;SDS011;34673;52.808;17.856;2023-02-01T12:47:06;7.15;;;1.77;;
48853;SDS011;34673;52.808;17.856;2023-02-01T12:55:03;5.80;;;1.70;;
48853;SDS011;34673;52.808;17.856;2023-02-01T12:58:03;7.38;;;1.73;;
48853;SDS011;34673;52.808;17.856;2023-02-01T13:00:39;9.10;;;2.10;;
48853;SDS011;34673;52.808;17.856;2023-02-01T13:06:23;7.00;;;1.95;;
48853;SDS011;34673;52.808;17.856;2023-02-01T13:11:45;5.57;;;2.30;;
48853;SDS011;34673;52.808;17.856;2023-02-01T13:17:00;6.05;;;2.22;;
48853;SDS011;34673;52.808;17.856;2023-02-01T13:22:13;7.63;;;2.75;;
48853;SDS011;34673;52.808;17.856;2023-02-01T13:25:25;6.80;;;2.05;;
48853;SDS011;34673;52.808;17.856;2023-02-01T13:27:59;7.65;;;2.10;;
48853;SDS011;34673;52.808;17.856;2023-02-01T13:30:34;12.38;;;4.00;;
48853;SDS011;34673;52.808;17.856;2023-02-01T13:33:22;15.82;;;4.30;;
48853;SDS011;34673;52.808;17.856;2023-02-01T13:36:30;8.70;;;2.70;;
48853;SDS011;34673;52.808;17.856;2023-02-01T13:41:51;9.05;;;2.80;;
48853;SDS011;34673;52.808;17.856;2023-02-01T13:44:32;7.88;;;2.70;;
48853;SDS011;34673;52.808;17.856;2023-02-01T13:47:11;15.88;;;5.75;;
48853;SDS011;34673;52.808;17.856;2023-02-01T13:49:48;7.50;;;2.40;;
48853;SDS011;34673;52.808;17.856;2023-02-01T13:52:28;9.43;;;2.38;;
48853;SDS011;34673;52.808;17.856;2023-02-01T13:55:03;9.07;;;2.38;;
48853;SDS011;34673;52.808;17.856;2023-02-01T13:57:58;6.15;;;1.85;;
48853;SDS011;34673;52.808;17.856;2023-02-01T14:00:29;9.80;;;2.47;;
48853;SDS011;34673;52.808;17.856;2023-02-01T14:03:20;9.60;;;2.20;;
48853;SDS011;34673;52.808;17.856;2023-02-01T14:21:49;8.73;;;1.90;;
48853;SDS011;34673;52.808;17.856;2023-02-01T14:24:26;8.55;;;1.90;;
48853;SDS011;34673;52.808;17.856;2023-02-01T14:26:56;7.03;;;2.50;;
48853;SDS011;34673;52.808;17.856;2023-02-01T14:29:30;12.85;;;2.80;;
48853;SDS011;34673;52.808;17.856;2023-02-01T14:42:26;6.95;;;2.65;;
48853;SDS011;34673;52.808;17.856;2023-02-01T14:47:46;8.77;;;2.38;;
48853;SDS011;34673;52.808;17.856;2023-02-01T14:50:18;11.60;;;3.00;;
48853;SDS011;34673;52.808;17.856;2023-02-01T15:00:55;8.07;;;2.55;;
48853;SDS011;34673;52.808;17.856;2023-02-01T15:06:20;7.75;;;2.20;;
48853;SDS011;34673;52.808;17.856;2023-02-01T15:09:17;7.07;;;2.08;;
48853;SDS011;34673;52.808;17.856;2023-02-01T15:11:56;7.78;;;1.80;;
48853;SDS011;34673;52.808;17.856;2023-02-01T15:14:43;8.13;;;1.90;;
48853;SDS011;34673;52.808;17.856;2023-02-01T15:17:20;7.13;;;1.85;;
48853;SDS011;34673;52.808;17.856;2023-02-01T15:22:30;10.65;;;1.75;;
48853;SDS011;34673;52.808;17.856;2023-02-01T15:24:59;6.55;;;2.10;;
48853;SDS011;34673;52.808;17.856;2023-02-01T15:27:27;8.32;;;1.80;;
48853;SDS011;34673;52.808;17.856;2023-02-01T15:30:04;8.27;;;2.13;;
48853;SDS011;34673;52.808;17.856;2023-02-01T15:35:31;7.45;;;1.90;;
48853;SDS011;34673;52.808;17.856;2023-02-01T15:43:20;5.65;;;1.90;;
48853;SDS011;34673;52.808;17.856;2023-02-01T15:45:48;9.80;;;1.95;;
48853;SDS011;34673;52.808;17.856;2023-02-01T15:50:52;12.18;;;2.30;;
48853;SDS011;34673;52.808;17.856;2023-02-01T15:53:23;10.07;;;2.15;;
48853;SDS011;34673;52.808;17.856;2023-02-01T15:55:54;13.57;;;2.35;;
48853;SDS011;34673;52.808;17.856;2023-02-01T16:00:59;9.40;;;2.13;;
48853;SDS011;34673;52.808;17.856;2023-02-01T16:03:45;12.13;;;3.13;;
48853;SDS011;34673;52.808;17.856;2023-02-01T16:08:49;13.05;;;2.70;;
48853;SDS011;34673;52.808;17.856;2023-02-01T16:11:26;10.23;;;2.45;;
48853;SDS011;34673;52.808;17.856;2023-02-01T16:14:01;8.53;;;2.37;;
48853;SDS011;34673;52.808;17.856;2023-02-01T16:16:28;10.35;;;2.42;;
48853;SDS011;34673;52.808;17.856;2023-02-01T16:18:56;6.72;;;2.20;;
48853;SDS011;34673;52.808;17.856;2023-02-01T16:21:23;10.75;;;2.40;;
48853;SDS011;34673;52.808;17.856;2023-02-01T16:23:50;13.40;;;2.83;;
48853;SDS011;34673;52.808;17.856;2023-02-01T16:26:19;8.20;;;2.40;;
48853;SDS011;34673;52.808;17.856;2023-02-01T16:28:47;11.35;;;3.00;;
48853;SDS011;34673;52.808;17.856;2023-02-01T16:31:15;10.82;;;2.30;;
48853;SDS011;34673;52.808;17.856;2023-02-01T16:33:50;9.73;;;2.10;;
48853;SDS011;34673;52.808;17.856;2023-02-01T16:36:18;11.07;;;3.38;;
48853;SDS011;34673;52.808;17.856;2023-02-01T16:38:46;8.05;;;2.35;;
48853;SDS011;34673;52.808;17.856;2023-02-01T16:41:15;7.85;;;2.15;;
48853;SDS011;34673;52.808;17.856;2023-02-01T16:43:44;12.90;;;2.40;;
48853;SDS011;34673;52.808;17.856;2023-02-01T16:46:17;9.10;;;2.60;;
48853;SDS011;34673;52.808;17.856;2023-02-01T16:48:55;10.10;;;2.85;;
48853;SDS011;34673;52.808;17.856;2023-02-01T16:51:25;12.05;;;3.15;;
48853;SDS011;34673;52.808;17.856;2023-02-01T16:53:59;9.18;;;2.78;;
48853;SDS011;34673;52.808;17.856;2023-02-01T16:56:30;11.38;;;2.97;;
48853;SDS011;34673;52.808;17.856;2023-02-01T16:58:59;12.43;;;3.15;;
48853;SDS011;34673;52.808;17.856;2023-02-01T17:01:29;15.30;;;3.78;;
48853;SDS011;34673;52.808;17.856;2023-02-01T17:03:56;13.93;;;3.10;;
48853;SDS011;34673;52.808;17.856;2023-02-01T17:06:24;13.15;;;3.22;;
48853;SDS011;34673;52.808;17.856;2023-02-01T17:11:22;9.05;;;2.50;;
48853;SDS011;34673;52.808;17.856;2023-02-01T17:13:49;6.55;;;2.17;;
48853;SDS011;34673;52.808;17.856;2023-02-01T17:18:58;8.13;;;1.77;;
48853;SDS011;34673;52.808;17.856;2023-02-01T17:21:26;5.53;;;1.98;;
48853;SDS011;34673;52.808;17.856;2023-02-01T17:23:56;8.13;;;1.97;;
48853;SDS011;34673;52.808;17.856;2023-02-01T17:26:25;11.18;;;2.47;;
48853;SDS011;34673;52.808;17.856;2023-02-01T17:28:52;7.00;;;1.80;;
48853;SDS011;34673;52.808;17.856;2023-02-01T17:31:20;6.40;;;2.33;;
48853;SDS011;34673;52.808;17.856;2023-02-01T17:33:49;7.45;;;2.17;;
48853;SDS011;34673;52.808;17.856;2023-02-01T17:36:17;9.88;;;2.35;;
48853;SDS011;34673;52.808;17.856;2023-02-01T17:38:44;5.95;;;2.10;;
48853;SDS011;34673;52.808;17.856;2023-02-01T17:41:25;9.10;;;2.20;;
48853;SDS011;34673;52.808;17.856;2023-02-01T17:43:52;5.72;;;1.83;;
48853;SDS011;34673;52.808;17.856;2023-02-01T17:46:19;5.95;;;2.10;;
48853;SDS011;34673;52.808;17.856;2023-02-01T17:48:53;6.32;;;2.00;;
48853;SDS011;34673;52.808;17.856;2023-02-01T17:51:24;6.97;;;1.80;;
48853;SDS011;34673;52.808;17.856;2023-02-01T17:53:55;6.38;;;1.70;;
48853;SDS011;34673;52.808;17.856;2023-02-01T17:56:23;8.73;;;2.22;;